createdAt,value
2018-02-19T00:00:24.544Z,995.52
2018-02-19T00:01:24.782Z,995.57
2018-02-19T00:02:25.017Z,995.53
2018-02-19T00:03:25.254Z,995.55
2018-02-19T00:04:25.493Z,995.54
2018-02-19T00:05:25.731Z,995.55
2018-02-19T00:06:25.965Z,995.57
2018-02-19T00:07:26.201Z,995.54
2018-02-19T00:08:26.442Z,995.53
2018-02-19T00:09:26.678Z,995.54
2018-02-19T00:10:26.984Z,995.54
2018-02-19T00:11:27.219Z,995.49
2018-02-19T00:12:27.458Z,995.50
2018-02-19T00:13:27.696Z,995.52
2018-02-19T00:14:27.934Z,995.49
2018-02-19T00:15:28.166Z,995.52
2018-02-19T00:16:28.407Z,995.52
2018-02-19T00:17:28.645Z,995.47
2018-02-19T00:18:28.882Z,995.47
2018-02-19T00:19:29.115Z,995.43
2018-02-19T00:20:29.354Z,995.39
2018-02-19T00:21:29.591Z,995.42
2018-02-19T00:22:29.828Z,995.41
2018-02-19T00:23:30.063Z,995.39
2018-02-19T00:24:30.302Z,995.42
2018-02-19T00:25:30.552Z,995.44
2018-02-19T00:26:30.781Z,995.45
2018-02-19T00:27:31.013Z,995.45
2018-02-19T00:28:31.252Z,995.44
2018-02-19T00:29:31.489Z,995.38
2018-02-19T00:30:31.727Z,995.37
2018-02-19T00:31:31.962Z,995.35
2018-02-19T00:32:32.202Z,995.34
2018-02-19T00:33:32.440Z,995.28
2018-02-19T00:34:32.676Z,995.32
2018-02-19T00:35:32.911Z,995.29
2018-02-19T00:36:33.150Z,995.25
2018-02-19T00:37:33.387Z,995.19
2018-02-19T00:38:33.625Z,995.21
2018-02-19T00:39:33.860Z,995.23
2018-02-19T00:40:34.101Z,995.24
2018-02-19T00:41:34.336Z,995.24
2018-02-19T00:42:34.572Z,995.23
2018-02-19T00:43:34.809Z,995.24
2018-02-19T00:44:35.046Z,995.18
2018-02-19T00:45:35.284Z,995.14
2018-02-19T00:46:35.526Z,995.15
2018-02-19T00:47:35.757Z,995.11
2018-02-19T00:48:35.997Z,995.08
2018-02-19T00:49:36.233Z,995.07
2018-02-19T00:50:36.470Z,995.01
2018-02-19T00:51:36.707Z,995.05
2018-02-19T00:52:36.945Z,995.05
2018-02-19T00:53:37.182Z,995.05
2018-02-19T00:54:37.419Z,995.03
2018-02-19T00:55:37.656Z,995.03
2018-02-19T00:56:37.895Z,995.02
2018-02-19T00:57:38.133Z,995.02
2018-02-19T00:58:38.370Z,995.06
2018-02-19T00:59:38.605Z,995.00
2018-02-19T01:00:38.846Z,995.01
2018-02-19T01:01:39.090Z,994.99
2018-02-19T01:02:39.330Z,995.05
2018-02-19T01:03:39.563Z,995.02
2018-02-19T01:04:39.801Z,995.03
2018-02-19T01:05:40.042Z,995.01
2018-02-19T01:06:40.279Z,995.00
2018-02-19T01:07:40.516Z,994.99
2018-02-19T01:08:40.755Z,994.98
2018-02-19T01:09:40.992Z,994.97
2018-02-19T01:10:41.240Z,994.94
2018-02-19T01:11:41.465Z,994.91
2018-02-19T01:12:41.702Z,994.85
2018-02-19T01:13:41.940Z,994.89
2018-02-19T01:14:42.178Z,994.89
2018-02-19T01:15:42.413Z,994.83
2018-02-19T01:16:42.651Z,994.86
2018-02-19T01:17:42.888Z,994.86
2018-02-19T01:18:43.125Z,994.88
2018-02-19T01:19:43.361Z,994.86
2018-02-19T01:20:43.598Z,994.85
2018-02-19T01:21:43.839Z,994.84
2018-02-19T01:22:44.075Z,994.86
2018-02-19T01:23:44.310Z,994.85
2018-02-19T01:24:44.548Z,994.80
2018-02-19T01:25:44.786Z,994.80
2018-02-19T01:26:45.024Z,994.84
2018-02-19T01:27:45.259Z,994.81
2018-02-19T01:28:45.496Z,994.78
2018-02-19T01:29:45.736Z,994.73
2018-02-19T01:30:45.982Z,994.72
2018-02-19T01:31:46.209Z,994.73
2018-02-19T01:32:46.451Z,994.76
2018-02-19T01:33:46.684Z,994.74
2018-02-19T01:34:46.923Z,994.76
2018-02-19T01:35:47.157Z,994.69
2018-02-19T01:36:47.394Z,994.70
2018-02-19T01:37:47.634Z,994.70
2018-02-19T01:38:47.870Z,994.70
2018-02-19T01:39:48.107Z,994.65
2018-02-19T01:40:48.342Z,994.68
2018-02-19T01:41:48.581Z,994.69
2018-02-19T01:42:48.821Z,994.65
2018-02-19T01:43:49.057Z,994.65
2018-02-19T01:44:49.294Z,994.63
2018-02-19T01:45:49.531Z,994.59
2018-02-19T01:46:49.769Z,994.62
2018-02-19T01:47:50.005Z,994.59
2018-02-19T01:48:50.241Z,994.61
2018-02-19T01:49:50.480Z,994.60
2018-02-19T01:50:50.718Z,994.59
2018-02-19T01:51:50.953Z,994.56
2018-02-19T01:52:51.191Z,994.57
2018-02-19T01:53:51.429Z,994.57
2018-02-19T01:54:51.667Z,994.50
2018-02-19T01:55:51.902Z,994.55
2018-02-19T01:56:59.275Z,994.52
2018-02-19T01:57:59.532Z,994.50
2018-02-19T01:58:59.792Z,994.56
2018-02-19T02:00:00.038Z,994.58
2018-02-19T02:01:00.292Z,994.57
2018-02-19T02:02:01.557Z,994.53
2018-02-19T02:03:00.880Z,994.46
2018-02-19T02:04:01.130Z,994.46
2018-02-19T02:04:54.254Z,994.48
2018-02-19T02:05:54.492Z,994.45
2018-02-19T02:06:54.727Z,994.41
2018-02-19T02:07:54.966Z,994.37
2018-02-19T02:08:55.202Z,994.42
2018-02-19T02:09:55.439Z,994.37
2018-02-19T02:10:55.676Z,994.43
2018-02-19T02:11:55.916Z,994.40
2018-02-19T02:12:56.152Z,994.40
2018-02-19T02:13:56.390Z,994.40
2018-02-19T02:14:56.625Z,994.34
2018-02-19T02:15:56.859Z,994.27
2018-02-19T02:16:57.097Z,994.29
2018-02-19T02:17:57.334Z,994.27
2018-02-19T02:18:57.573Z,994.26
2018-02-19T02:19:57.806Z,994.28
2018-02-19T02:20:58.043Z,994.27
2018-02-19T02:21:58.282Z,994.29
2018-02-19T02:22:58.522Z,994.27
2018-02-19T02:23:58.753Z,994.20
2018-02-19T02:24:58.991Z,994.22
2018-02-19T02:25:59.227Z,994.18
2018-02-19T02:26:59.471Z,994.21
2018-02-19T02:27:59.699Z,994.23
2018-02-19T02:28:59.937Z,994.19
2018-02-19T02:30:00.174Z,994.20
2018-02-19T02:31:00.414Z,994.20
2018-02-19T02:32:00.681Z,994.18
2018-02-19T02:33:00.884Z,994.24
2018-02-19T02:34:01.125Z,994.21
2018-02-19T02:35:01.363Z,994.21
2018-02-19T02:36:01.598Z,994.19
2018-02-19T02:37:01.836Z,994.17
2018-02-19T02:38:02.072Z,994.19
2018-02-19T02:39:02.310Z,994.24
2018-02-19T02:40:02.546Z,994.23
2018-02-19T02:41:02.783Z,994.23
2018-02-19T02:42:03.022Z,994.22
2018-02-19T02:43:03.258Z,994.23
2018-02-19T02:44:03.492Z,994.19
2018-02-19T02:45:03.731Z,994.23
2018-02-19T02:46:03.970Z,994.25
2018-02-19T02:47:04.207Z,994.26
2018-02-19T02:48:04.443Z,994.20
2018-02-19T02:49:04.675Z,994.21
2018-02-19T02:50:04.920Z,994.16
2018-02-19T02:51:05.157Z,994.10
2018-02-19T02:52:05.390Z,994.16
2018-02-19T02:53:05.625Z,994.16
2018-02-19T02:54:05.868Z,994.14
2018-02-19T02:55:06.105Z,994.19
2018-02-19T02:56:06.340Z,994.19
2018-02-19T02:57:06.578Z,994.19
2018-02-19T02:58:06.817Z,994.17
2018-02-19T02:59:07.054Z,994.17
2018-02-19T03:00:07.288Z,994.13
2018-02-19T03:01:07.529Z,994.09
2018-02-19T03:02:07.765Z,994.02
2018-02-19T03:03:08.004Z,994.03
2018-02-19T03:04:08.239Z,994.07
2018-02-19T03:05:08.477Z,994.06
2018-02-19T03:06:08.718Z,994.04
2018-02-19T03:07:08.958Z,994.02
2018-02-19T03:08:09.190Z,994.03
2018-02-19T03:09:09.427Z,994.06
2018-02-19T03:10:09.667Z,994.03
2018-02-19T03:11:09.904Z,994.04
2018-02-19T03:12:10.139Z,994.02
2018-02-19T03:13:10.377Z,994.00
2018-02-19T03:14:10.614Z,993.98
2018-02-19T03:15:10.855Z,993.91
2018-02-19T03:16:11.089Z,993.90
2018-02-19T03:17:11.325Z,993.94
2018-02-19T03:18:11.563Z,993.89
2018-02-19T03:19:11.807Z,993.87
2018-02-19T03:20:12.037Z,993.85
2018-02-19T03:21:12.273Z,993.83
2018-02-19T03:22:12.510Z,993.86
2018-02-19T03:23:12.748Z,993.82
2018-02-19T03:24:12.983Z,993.83
2018-02-19T03:25:13.220Z,993.80
2018-02-19T03:26:13.460Z,993.83
2018-02-19T03:27:13.698Z,993.84
2018-02-19T03:28:13.933Z,993.79
2018-02-19T03:29:14.170Z,993.79
2018-02-19T03:30:14.422Z,993.83
2018-02-19T03:31:14.655Z,993.83
2018-02-19T03:32:14.884Z,993.84
2018-02-19T03:33:15.125Z,993.80
2018-02-19T03:34:15.360Z,993.81
2018-02-19T03:35:15.603Z,993.77
2018-02-19T03:36:15.832Z,993.81
2018-02-19T03:37:16.072Z,993.83
2018-02-19T03:38:16.307Z,993.83
2018-02-19T03:39:16.547Z,993.83
2018-02-19T03:40:16.778Z,993.84
2018-02-19T03:41:17.016Z,993.82
2018-02-19T03:42:17.257Z,993.79
2018-02-19T03:43:17.493Z,993.82
2018-02-19T03:44:17.729Z,993.76
2018-02-19T03:45:17.964Z,993.77
2018-02-19T03:46:18.221Z,993.80
2018-02-19T03:47:18.454Z,993.80
2018-02-19T03:48:18.696Z,993.80
2018-02-19T03:49:18.944Z,993.80
2018-02-19T03:50:19.178Z,993.81
2018-02-19T03:51:19.420Z,993.76
2018-02-19T03:52:19.658Z,993.80
2018-02-19T03:53:19.894Z,993.77
2018-02-19T03:54:20.144Z,993.72
2018-02-19T03:55:20.365Z,993.69
2018-02-19T03:56:20.598Z,993.65
2018-02-19T03:57:20.839Z,993.67
2018-02-19T03:58:21.083Z,993.65
2018-02-19T03:59:21.312Z,993.67
2018-02-19T04:00:21.548Z,993.64
2018-02-19T04:01:21.789Z,993.65
2018-02-19T04:02:22.026Z,993.64
2018-02-19T04:03:22.260Z,993.63
2018-02-19T04:04:22.498Z,993.66
2018-02-19T04:05:22.737Z,993.66
2018-02-19T04:06:22.975Z,993.65
2018-02-19T04:07:23.210Z,993.64
2018-02-19T04:08:23.449Z,993.68
2018-02-19T04:09:23.685Z,993.63
2018-02-19T04:10:23.923Z,993.68
2018-02-19T04:11:24.161Z,993.61
2018-02-19T04:12:24.399Z,993.64
2018-02-19T04:13:24.637Z,993.58
2018-02-19T04:14:24.875Z,993.58
2018-02-19T04:15:25.109Z,993.56
2018-02-19T04:16:25.346Z,993.59
2018-02-19T04:17:25.585Z,993.58
2018-02-19T04:18:25.822Z,993.55
2018-02-19T04:19:26.056Z,993.53
2018-02-19T04:20:26.294Z,993.53
2018-02-19T04:21:26.533Z,993.53
2018-02-19T04:22:26.771Z,993.52
2018-02-19T04:23:27.008Z,993.50
2018-02-19T04:24:27.243Z,993.44
2018-02-19T04:25:27.482Z,993.43
2018-02-19T04:26:27.720Z,993.45
2018-02-19T04:27:27.957Z,993.44
2018-02-19T04:28:28.194Z,993.43
2018-02-19T04:29:28.431Z,993.46
2018-02-19T04:30:28.669Z,993.46
2018-02-19T04:31:28.904Z,993.52
2018-02-19T04:32:29.141Z,993.47
2018-02-19T04:33:29.381Z,993.40
2018-02-19T04:34:29.618Z,993.42
2018-02-19T04:35:29.852Z,993.45
2018-02-19T04:36:30.090Z,993.38
2018-02-19T04:37:30.329Z,993.41
2018-02-19T04:38:30.566Z,993.38
2018-02-19T04:39:30.802Z,993.42
2018-02-19T04:40:31.039Z,993.47
2018-02-19T04:41:31.278Z,993.37
2018-02-19T04:42:31.515Z,993.38
2018-02-19T04:43:31.750Z,993.32
2018-02-19T04:44:31.987Z,993.34
2018-02-19T04:45:32.227Z,993.36
2018-02-19T04:46:32.466Z,993.35
2018-02-19T04:47:32.700Z,993.37
2018-02-19T04:48:32.937Z,993.36
2018-02-19T04:49:33.176Z,993.35
2018-02-19T04:50:41.057Z,993.33
2018-02-19T04:51:40.857Z,993.33
2018-02-19T04:52:41.116Z,993.27
2018-02-19T04:53:41.364Z,993.25
2018-02-19T04:54:41.628Z,993.25
2018-02-19T04:55:41.878Z,993.23
2018-02-19T04:56:42.647Z,993.21
2018-02-19T04:57:42.440Z,993.23
2018-02-19T04:58:35.561Z,993.23
2018-02-19T04:59:35.805Z,993.19
2018-02-19T05:00:36.047Z,993.22
2018-02-19T05:01:36.276Z,993.25
2018-02-19T05:02:36.513Z,993.26
2018-02-19T05:03:36.755Z,993.29
2018-02-19T05:04:36.992Z,993.25
2018-02-19T05:05:37.224Z,993.22
2018-02-19T05:06:37.462Z,993.23
2018-02-19T05:07:37.706Z,993.25
2018-02-19T05:08:37.940Z,993.25
2018-02-19T05:09:38.176Z,993.24
2018-02-19T05:10:38.417Z,993.26
2018-02-19T05:11:38.650Z,993.29
2018-02-19T05:12:38.888Z,993.25
2018-02-19T05:13:39.126Z,993.26
2018-02-19T05:14:39.364Z,993.17
2018-02-19T05:15:39.601Z,993.14
2018-02-19T05:16:39.838Z,993.18
2018-02-19T05:17:40.073Z,993.19
2018-02-19T05:18:40.313Z,993.15
2018-02-19T05:19:40.549Z,993.15
2018-02-19T05:20:40.786Z,993.17
2018-02-19T05:21:41.021Z,993.13
2018-02-19T05:22:41.260Z,993.15
2018-02-19T05:23:41.502Z,993.16
2018-02-19T05:24:41.738Z,993.12
2018-02-19T05:25:41.971Z,993.13
2018-02-19T05:26:42.208Z,993.12
2018-02-19T05:27:42.447Z,993.13
2018-02-19T05:28:42.685Z,993.16
2018-02-19T05:29:42.919Z,993.16
2018-02-19T05:30:43.153Z,993.15
2018-02-19T05:31:43.397Z,993.15
2018-02-19T05:32:43.633Z,993.16
2018-02-19T05:33:43.869Z,993.14
2018-02-19T05:34:44.106Z,993.18
2018-02-19T05:35:44.345Z,993.16
2018-02-19T05:36:44.583Z,993.15
2018-02-19T05:37:44.817Z,993.20
2018-02-19T05:38:45.055Z,993.14
2018-02-19T05:39:45.295Z,993.14
2018-02-19T05:40:45.532Z,993.12
2018-02-19T05:41:45.765Z,993.11
2018-02-19T05:42:46.003Z,993.16
2018-02-19T05:43:46.245Z,993.13
2018-02-19T05:44:46.481Z,993.14
2018-02-19T05:45:46.715Z,993.15
2018-02-19T05:46:46.952Z,993.14
2018-02-19T05:47:47.192Z,993.15
2018-02-19T05:48:47.430Z,993.17
2018-02-19T05:49:47.665Z,993.19
2018-02-19T05:50:47.903Z,993.18
2018-02-19T05:51:48.142Z,993.19
2018-02-19T05:52:48.383Z,993.19
2018-02-19T05:53:48.614Z,993.20
2018-02-19T05:54:48.852Z,993.21
2018-02-19T05:55:49.090Z,993.16
2018-02-19T05:56:49.327Z,993.18
2018-02-19T05:57:49.560Z,993.15
2018-02-19T05:58:49.798Z,993.14
2018-02-19T05:59:50.039Z,993.16
2018-02-19T06:00:50.277Z,993.15
2018-02-19T06:01:50.512Z,993.13
2018-02-19T06:02:50.749Z,993.17
2018-02-19T06:03:50.988Z,993.18
2018-02-19T06:04:51.233Z,993.29
2018-02-19T06:05:51.460Z,993.28
2018-02-19T06:06:51.697Z,993.31
2018-02-19T06:07:51.982Z,993.26
2018-02-19T06:08:52.174Z,993.31
2018-02-19T06:09:52.412Z,993.29
2018-02-19T06:10:52.651Z,993.34
2018-02-19T06:11:52.886Z,993.31
2018-02-19T06:12:53.126Z,993.36
2018-02-19T06:13:53.357Z,993.28
2018-02-19T06:14:53.596Z,993.29
2018-02-19T06:15:53.835Z,993.29
2018-02-19T06:16:54.071Z,993.30
2018-02-19T06:17:54.306Z,993.23
2018-02-19T06:18:54.544Z,993.23
2018-02-19T06:19:54.783Z,993.25
2018-02-19T06:20:55.021Z,993.26
2018-02-19T06:21:55.256Z,993.26
2018-02-19T06:22:55.492Z,993.23
2018-02-19T06:23:55.734Z,993.26
2018-02-19T06:24:55.971Z,993.27
2018-02-19T06:25:56.206Z,993.23
2018-02-19T06:26:56.444Z,993.26
2018-02-19T06:27:56.681Z,993.26
2018-02-19T06:28:56.921Z,993.27
2018-02-19T06:29:57.156Z,993.28
2018-02-19T06:30:57.394Z,993.27
2018-02-19T06:31:57.628Z,993.23
2018-02-19T06:32:57.868Z,993.26
2018-02-19T06:33:58.104Z,993.19
2018-02-19T06:34:58.340Z,993.17
2018-02-19T06:35:58.580Z,993.19
2018-02-19T06:36:58.817Z,993.15
2018-02-19T06:37:59.055Z,993.12
2018-02-19T06:38:59.290Z,993.10
2018-02-19T06:39:59.529Z,993.09
2018-02-19T06:40:59.766Z,993.09
2018-02-19T06:42:00.000Z,993.04
2018-02-19T06:43:00.238Z,993.09
2018-02-19T06:44:00.482Z,993.11
2018-02-19T06:45:00.715Z,993.09
2018-02-19T06:46:00.951Z,993.15
2018-02-19T06:47:01.188Z,993.15
2018-02-19T06:48:01.426Z,993.11
2018-02-19T06:49:01.664Z,993.11
2018-02-19T06:50:01.899Z,993.11
2018-02-19T06:51:02.137Z,993.16
2018-02-19T06:52:02.376Z,993.16
2018-02-19T06:53:02.613Z,993.10
2018-02-19T06:54:02.854Z,993.10
2018-02-19T06:55:03.085Z,993.08
2018-02-19T06:56:03.325Z,993.07
2018-02-19T06:57:03.561Z,993.08
2018-02-19T06:58:03.798Z,993.06
2018-02-19T06:59:04.037Z,993.11
2018-02-19T07:00:04.273Z,993.08
2018-02-19T07:01:04.510Z,993.03
2018-02-19T07:02:04.745Z,993.04
2018-02-19T07:03:04.983Z,993.02
2018-02-19T07:04:05.222Z,993.00
2018-02-19T07:05:05.459Z,993.05
2018-02-19T07:06:05.694Z,993.04
2018-02-19T07:07:05.931Z,993.01
2018-02-19T07:08:06.270Z,992.99
2018-02-19T07:09:06.417Z,992.99
2018-02-19T07:10:06.648Z,993.02
2018-02-19T07:11:06.884Z,992.99
2018-02-19T07:12:07.121Z,993.00
2018-02-19T07:13:07.366Z,993.03
2018-02-19T07:14:07.597Z,993.04
2018-02-19T07:15:07.846Z,993.02
2018-02-19T07:16:08.069Z,993.03
2018-02-19T07:17:08.310Z,993.03
2018-02-19T07:18:08.542Z,993.03
2018-02-19T07:19:08.779Z,993.02
2018-02-19T07:20:09.016Z,993.01
2018-02-19T07:21:09.254Z,993.02
2018-02-19T07:22:09.491Z,993.04
2018-02-19T07:23:09.729Z,993.04
2018-02-19T07:24:09.966Z,993.01
2018-02-19T07:25:10.203Z,993.00
2018-02-19T07:26:10.441Z,993.03
2018-02-19T07:27:10.679Z,993.06
2018-02-19T07:28:10.917Z,993.02
2018-02-19T07:29:11.153Z,993.03
2018-02-19T07:30:11.389Z,993.01
2018-02-19T07:31:11.625Z,993.00
2018-02-19T07:32:11.865Z,993.00
2018-02-19T07:33:12.104Z,993.01
2018-02-19T07:34:12.337Z,993.01
2018-02-19T07:35:12.586Z,993.03
2018-02-19T07:36:12.816Z,993.02
2018-02-19T07:37:13.051Z,993.01
2018-02-19T07:38:13.287Z,993.00
2018-02-19T07:39:13.524Z,992.99
2018-02-19T07:40:13.762Z,992.97
2018-02-19T07:41:14.001Z,993.05
2018-02-19T07:42:14.235Z,993.03
2018-02-19T07:43:14.472Z,993.03
2018-02-19T07:44:21.861Z,993.01
2018-02-19T07:45:14.964Z,993.02
2018-02-19T07:46:22.818Z,993.02
2018-02-19T07:47:22.617Z,993.02
2018-02-19T07:48:23.367Z,993.00
2018-02-19T07:49:24.167Z,993.02
2018-02-19T07:50:16.378Z,993.03
2018-02-19T07:51:23.736Z,993.01
2018-02-19T07:52:16.863Z,993.03
2018-02-19T07:53:17.104Z,993.02
2018-02-19T07:54:17.526Z,993.02
2018-02-19T07:55:17.919Z,993.02
2018-02-19T07:56:17.811Z,993.01
2018-02-19T07:57:18.403Z,993.05
2018-02-19T07:58:18.649Z,993.03
2018-02-19T07:59:18.892Z,993.01
2018-02-19T08:00:18.977Z,993.04
2018-02-19T08:01:18.998Z,992.98
2018-02-19T08:02:19.632Z,993.00
2018-02-19T08:03:19.712Z,992.98
2018-02-19T08:04:19.725Z,992.93
2018-02-19T08:05:19.960Z,992.92
2018-02-19T08:06:20.196Z,992.90
2018-02-19T08:07:20.433Z,992.95
2018-02-19T08:08:20.675Z,992.94
2018-02-19T08:09:20.907Z,992.94
2018-02-19T08:10:21.143Z,992.92
2018-02-19T08:11:21.383Z,992.94
2018-02-19T08:12:21.614Z,992.95
2018-02-19T08:13:21.998Z,992.90
2018-02-19T08:14:22.087Z,992.91
2018-02-19T08:15:22.332Z,992.89
2018-02-19T08:16:22.560Z,992.93
2018-02-19T08:17:22.803Z,992.95
2018-02-19T08:18:23.042Z,992.94
2018-02-19T08:19:23.280Z,992.87
2018-02-19T08:20:23.508Z,992.98
2018-02-19T08:21:23.747Z,992.94
2018-02-19T08:22:23.985Z,992.85
2018-02-19T08:23:24.228Z,992.94
2018-02-19T08:24:24.461Z,992.91
2018-02-19T08:25:24.699Z,992.86
2018-02-19T08:26:24.932Z,992.85
2018-02-19T08:27:25.170Z,992.81
2018-02-19T08:28:25.406Z,992.82
2018-02-19T08:29:25.645Z,992.83
2018-02-19T08:30:25.882Z,992.79
2018-02-19T08:31:26.120Z,992.82
2018-02-19T08:32:26.357Z,992.79
2018-02-19T08:33:26.594Z,992.76
2018-02-19T08:34:26.832Z,992.77
2018-02-19T08:35:27.075Z,992.74
2018-02-19T08:36:27.304Z,992.77
2018-02-19T08:37:27.542Z,992.74
2018-02-19T08:39:59.831Z,992.73
2018-02-19T08:41:00.070Z,992.70
2018-02-19T08:42:00.308Z,992.69
2018-02-19T08:43:00.545Z,992.65
2018-02-19T08:44:00.792Z,992.67
2018-02-19T08:45:01.024Z,992.64
2018-02-19T08:46:01.264Z,992.63
2018-02-19T08:47:01.497Z,992.66
2018-02-19T08:48:01.736Z,992.68
2018-02-19T08:49:01.974Z,992.66
2018-02-19T08:50:02.209Z,992.67
2018-02-19T08:51:02.445Z,992.64
2018-02-19T08:52:02.684Z,992.61
2018-02-19T08:53:02.921Z,992.61
2018-02-19T08:54:03.158Z,992.69
2018-02-19T08:55:03.396Z,992.58
2018-02-19T08:56:03.633Z,992.58
2018-02-19T08:57:03.871Z,992.60
2018-02-19T08:58:04.106Z,992.59
2018-02-19T08:59:04.344Z,992.58
2018-02-19T09:00:04.586Z,992.58
2018-02-19T09:01:04.841Z,992.56
2018-02-19T09:02:05.059Z,992.58
2018-02-19T09:03:05.602Z,992.58
2018-02-19T09:04:05.992Z,992.57
2018-02-19T09:05:05.776Z,992.56
2018-02-19T09:06:06.005Z,992.55
2018-02-19T09:07:06.241Z,992.55
2018-02-19T09:08:06.480Z,992.48
2018-02-19T09:09:06.718Z,992.51
2018-02-19T09:10:06.953Z,992.46
2018-02-19T09:11:07.190Z,992.46
2018-02-19T09:12:07.429Z,992.50
2018-02-19T09:13:07.675Z,992.47
2018-02-19T09:14:07.907Z,992.42
2018-02-19T09:15:08.144Z,992.46
2018-02-19T09:16:08.382Z,992.44
2018-02-19T09:17:08.624Z,992.53
2018-02-19T09:18:08.852Z,992.51
2018-02-19T09:19:09.095Z,992.50
2018-02-19T09:20:09.329Z,992.46
2018-02-19T09:21:09.573Z,992.46
2018-02-19T09:22:09.793Z,992.39
2018-02-19T09:23:10.038Z,992.36
2018-02-19T09:24:10.275Z,992.36
2018-02-19T09:25:10.512Z,992.26
2018-02-19T09:26:10.750Z,992.28
2018-02-19T09:27:10.992Z,992.26
2018-02-19T09:28:11.225Z,992.30
2018-02-19T09:29:11.462Z,992.33
2018-02-19T09:30:11.699Z,992.23
2018-02-19T09:31:11.939Z,992.23
2018-02-19T09:32:12.173Z,992.23
2018-02-19T09:33:12.410Z,992.25
2018-02-19T09:34:12.647Z,992.21
2018-02-19T09:35:12.884Z,992.21
2018-02-19T09:36:13.176Z,992.22
2018-02-19T09:37:13.368Z,992.23
2018-02-19T09:38:13.652Z,992.23
2018-02-19T09:39:13.837Z,992.17
2018-02-19T09:40:14.074Z,992.17
2018-02-19T09:41:14.317Z,992.17
2018-02-19T09:42:14.546Z,992.21
2018-02-19T09:43:14.781Z,992.17
2018-02-19T09:44:15.022Z,992.15
2018-02-19T09:45:15.258Z,992.20
2018-02-19T09:46:15.494Z,992.13
2018-02-19T09:47:15.731Z,992.20
2018-02-19T09:48:15.970Z,992.20
2018-02-19T09:49:16.205Z,992.17
2018-02-19T09:50:16.444Z,992.17
2018-02-19T09:51:16.681Z,992.19
2018-02-19T09:52:16.923Z,992.14
2018-02-19T09:53:17.164Z,992.15
2018-02-19T09:54:17.412Z,992.12
2018-02-19T09:55:17.627Z,992.10
2018-02-19T09:56:17.868Z,992.10
2018-02-19T09:57:18.102Z,992.10
2018-02-19T09:58:18.338Z,992.15
2018-02-19T09:59:18.576Z,992.13
2018-02-19T10:00:18.836Z,992.13
2018-02-19T10:01:19.067Z,992.23
2018-02-19T10:02:19.305Z,992.16
2018-02-19T10:03:19.542Z,992.18
2018-02-19T10:04:19.779Z,992.17
2018-02-19T10:05:20.016Z,992.15
2018-02-19T10:06:20.260Z,992.13
2018-02-19T10:07:20.491Z,992.14
2018-02-19T10:08:20.728Z,992.07
2018-02-19T10:09:20.964Z,992.01
2018-02-19T10:10:21.201Z,992.04
2018-02-19T10:11:21.440Z,991.99
2018-02-19T10:12:21.677Z,992.01
2018-02-19T10:13:21.915Z,992.01
2018-02-19T10:14:22.144Z,992.04
2018-02-19T10:15:22.381Z,992.02
2018-02-19T10:16:22.621Z,992.04
2018-02-19T10:17:22.859Z,992.02
2018-02-19T10:18:23.091Z,992.02
2018-02-19T10:19:23.325Z,992.02
2018-02-19T10:20:23.563Z,992.02
2018-02-19T10:21:23.799Z,992.00
2018-02-19T10:22:24.037Z,991.96
2018-02-19T10:23:24.262Z,992.00
2018-02-19T10:24:24.503Z,991.99
2018-02-19T10:25:24.731Z,992.03
2018-02-19T10:26:24.968Z,992.01
2018-02-19T10:27:25.209Z,991.98
2018-02-19T10:28:25.441Z,992.00
2018-02-19T10:29:25.679Z,991.97
2018-02-19T10:30:25.923Z,991.95
2018-02-19T10:31:26.149Z,991.92
2018-02-19T10:32:26.386Z,991.92
2018-02-19T10:33:26.626Z,991.93
2018-02-19T10:34:34.828Z,991.89
2018-02-19T10:35:27.268Z,991.91
2018-02-19T10:36:34.632Z,991.88
2018-02-19T10:37:34.887Z,991.85
2018-02-19T10:38:35.138Z,991.87
2018-02-19T10:39:28.261Z,991.80
2018-02-19T10:40:28.499Z,991.84
2018-02-19T10:41:28.737Z,991.83
2018-02-19T10:42:28.969Z,991.85
2018-02-19T10:43:29.208Z,991.90
2018-02-19T10:44:29.446Z,991.86
2018-02-19T10:45:29.681Z,991.89
2018-02-19T10:46:29.919Z,991.85
2018-02-19T10:47:30.152Z,991.79
2018-02-19T10:48:30.426Z,991.77
2018-02-19T10:49:30.626Z,991.71
2018-02-19T10:50:30.867Z,991.72
2018-02-19T10:51:31.108Z,991.71
2018-02-19T10:52:31.702Z,991.70
2018-02-19T10:53:31.572Z,991.69
2018-02-19T10:54:32.192Z,991.73
2018-02-19T10:55:32.209Z,991.73
2018-02-19T10:56:32.282Z,991.70
2018-02-19T10:57:32.519Z,991.72
2018-02-19T10:58:32.757Z,991.68
2018-02-19T10:59:32.992Z,991.63
2018-02-19T11:00:33.231Z,991.61
2018-02-19T11:01:33.470Z,991.60
2018-02-19T11:02:33.712Z,991.55
2018-02-19T11:03:33.943Z,991.54
2018-02-19T11:04:34.181Z,991.62
2018-02-19T11:05:34.418Z,991.56
2018-02-19T11:06:34.656Z,991.60
2018-02-19T11:07:34.896Z,991.60
2018-02-19T11:08:35.131Z,991.62
2018-02-19T11:09:35.369Z,991.59
2018-02-19T11:10:35.613Z,991.61
2018-02-19T11:11:35.843Z,991.64
2018-02-19T11:12:36.081Z,991.59
2018-02-19T11:13:36.319Z,991.56
2018-02-19T11:14:36.561Z,991.52
2018-02-19T11:15:36.793Z,991.56
2018-02-19T11:16:37.034Z,991.55
2018-02-19T11:17:37.275Z,991.57
2018-02-19T11:18:37.510Z,991.56
2018-02-19T11:19:37.751Z,991.48
2018-02-19T11:20:37.991Z,991.53
2018-02-19T11:21:38.232Z,991.50
2018-02-19T11:22:38.473Z,991.50
2018-02-19T11:23:38.711Z,991.50
2018-02-19T11:24:38.951Z,991.46
2018-02-19T11:25:39.195Z,991.50
2018-02-19T11:26:39.427Z,991.48
2018-02-19T11:27:39.667Z,991.41
2018-02-19T11:28:39.907Z,991.44
2018-02-19T11:29:40.147Z,991.38
2018-02-19T11:30:40.387Z,991.42
2018-02-19T11:31:40.626Z,991.38
2018-02-19T11:32:40.866Z,991.42
2018-02-19T11:33:41.099Z,991.42
2018-02-19T11:34:41.343Z,991.40
2018-02-19T11:35:41.585Z,991.35
2018-02-19T11:36:42.537Z,991.34
2018-02-19T11:37:42.770Z,991.31
2018-02-19T11:38:42.834Z,991.31
2018-02-19T11:39:42.539Z,991.28
2018-02-19T11:40:42.780Z,991.26
2018-02-19T11:41:43.011Z,991.24
2018-02-19T11:42:43.251Z,991.26
2018-02-19T11:43:43.487Z,991.23
2018-02-19T11:44:43.729Z,991.26
2018-02-19T11:45:43.959Z,991.28
2018-02-19T11:46:44.236Z,991.19
2018-02-19T11:47:44.433Z,991.20
2018-02-19T11:48:44.678Z,991.19
2018-02-19T11:49:44.908Z,991.19
2018-02-19T11:50:45.147Z,991.15
2018-02-19T11:51:45.385Z,991.17
2018-02-19T11:52:45.627Z,991.13
2018-02-19T11:53:45.858Z,991.11
2018-02-19T11:54:46.097Z,991.10
2018-02-19T11:55:46.335Z,991.09
2018-02-19T11:56:46.579Z,991.09
2018-02-19T11:57:46.807Z,991.07
2018-02-19T11:58:47.047Z,991.17
2018-02-19T11:59:47.353Z,991.11
2018-02-19T12:00:47.526Z,991.09
2018-02-19T12:01:47.757Z,991.07
2018-02-19T12:02:47.996Z,991.09
2018-02-19T12:03:48.245Z,991.05
2018-02-19T12:04:48.486Z,991.06
2018-02-19T12:05:48.724Z,991.06
2018-02-19T12:06:48.970Z,991.05
2018-02-19T12:07:49.211Z,991.03
2018-02-19T12:08:49.443Z,991.03
2018-02-19T12:09:49.679Z,990.99
2018-02-19T12:10:49.917Z,991.01
2018-02-19T12:11:50.160Z,990.97
2018-02-19T12:12:50.390Z,990.95
2018-02-19T12:13:50.629Z,990.89
2018-02-19T12:14:50.865Z,990.95
2018-02-19T12:15:51.100Z,990.92
2018-02-19T12:16:51.335Z,990.91
2018-02-19T12:17:51.573Z,990.93
2018-02-19T12:18:51.812Z,990.93
2018-02-19T12:19:52.051Z,990.90
2018-02-19T12:20:52.284Z,990.91
2018-02-19T12:21:52.522Z,990.91
2018-02-19T12:22:52.764Z,990.87
2018-02-19T12:23:52.998Z,990.89
2018-02-19T12:24:53.234Z,990.88
2018-02-19T12:25:53.473Z,990.93
2018-02-19T12:26:53.711Z,990.90
2018-02-19T12:27:53.949Z,990.90
2018-02-19T12:28:54.183Z,990.88
2018-02-19T12:29:54.423Z,990.86
2018-02-19T12:30:54.660Z,990.84
2018-02-19T12:31:54.898Z,990.87
2018-02-19T12:32:55.132Z,990.84